Arthur, Arkansas
Current Conditions -  °F | °C
As of 3:53 AM on Sunday 21 Dec 2014 (Local Time) from KRUE Reporting Station
Overcast Overcast  
Wind Chill: 42°   Ceiling: 3700
Heat Index: 42°   Visibility: 10mi
Dew Point: 36°   Wind: 3mph
Humidity: 79%   Direction: NA
Pressure: 30.19"   Gusts: NA
Location:  35.2722°N, 92.6766°W
Report Text: KRUE 210953Z AUTO VRB03KT 10SM OVC037 06/02 A3019 RMK AO2 SLP221 T00560022
Loading
Personal Weather Stations






























Interactive Weather Map New forecast layout! Learn more

10-Day Weather Forecast

Advertisements
Track Severe Weather on mobile